Terminal Aerodrome Forecast
Issued by NWS Jackson, MS

Home | Current Version | Previous Version | Text Only | Print | Product List | Glossary On
Versions: 1 2 3 4 5 6 7 8 9 10 11 12 13
000
FTUS44 KJAN 280500
TAFHBG
TAF
KHBG 280520Z 2806/2906 16007KT 5SM -RA BR VCTS BKN004CB OVC015
     FM280800 14007KT 5SM TSRA BR SCT006 BKN015CB OVC035
     FM281100 24004KT 5SM -RA BR BKN004 OVC012
     FM281300 32006KT 6SM -RA BR OVC003
     FM282100 34005KT P6SM -RA OVC007=

USA.gov is the U.S. government's official web portal to all federal, state and local government web resources and services.